Back to Top

My Weather Underground Personal Weather Station Historical Data with Graphs...

Delerius Weather Station Historical Data
 
Daily Summary for January 25, 2021 Units:  English    Metric   Both
Daily Weekly Monthly Yearly
  Current: High: Low: Average:
Temperature: 35.1 °F 41.5 °F 27.5 °F 34.5 °F
Dew Point: 32.2 °F 36.3 °F 25 °F 31.3 °F
Humidity: 89.1% 94% 78.7% 88%
Wind Speed: 6.1mph 24mph 0mph 10.3mph
Wind Gust: 11mph 32mph - -
WindWest - - West
Pressure: 29.9 in 29.9 in 29.6 in -
Precipitation: 0.01 in      
 
 
Tabular Data for January 25, 2021
Time Temperature Dew Point Pressure Wind Wind Speed Wind Gust Humidity Rainfall Rate (Hourly) solar
00:04 28.6 °F 26.2 °F 29.6 in NW 4.2 mph 7 mph 91% 0 in 0 W/m2
00:09 28.6 °F 26.2 °F 29.6 in NW 1.1 mph 4 mph 91% 0 in 0 W/m2
00:14 28.6 °F 26.2 °F 29.6 in WNW 3.3 mph 7 mph 91% 0 in 0 W/m2
00:19 28.8 °F 26.4 °F 29.6 in WNW 4.5 mph 6 mph 91% 0 in 0 W/m2
00:24 28.8 °F 26.4 °F 29.6 in WNW 4.3 mph 6 mph 91% 0 in 0 W/m2
00:29 28.8 °F 26.4 °F 29.6 in WNW 5.5 mph 8 mph 91% 0 in 0 W/m2
00:34 28.9 °F 26.6 °F 29.6 in NW 4.6 mph 8 mph 91% 0 in 0 W/m2
00:39 28.8 °F 26.2 °F 29.6 in WNW 4.8 mph 6 mph 90% 0 in 0 W/m2
00:44 28.8 °F 26.2 °F 29.6 in WNW 5 mph 7 mph 90.1% 0 in 0 W/m2
00:49 28.9 °F 26.6 °F 29.6 in WNW 4.2 mph 6 mph 91% 0 in 0 W/m2
00:54 28.9 °F 26.6 °F 29.6 in West 3.5 mph 6 mph 90.7% 0 in 0 W/m2
00:59 28.8 °F 26.2 °F 29.6 in West 3.8 mph 6 mph 90% 0 in 0 W/m2
01:04 28.6 °F 26.1 °F 29.6 in West 4 mph 6 mph 90% 0 in 0 W/m2
01:09 28.6 °F 26.1 °F 29.6 in West 4.5 mph 8 mph 90% 0 in 0 W/m2
01:14 28.8 °F 26.2 °F 29.6 in West 4.1 mph 7 mph 90% 0 in 0 W/m2
01:19 28.9 °F 26.4 °F 29.6 in West 3.3 mph 6 mph 90% 0 in 0 W/m2
01:24 28.9 °F 26.2 °F 29.6 in West 2.9 mph 7 mph 89.5% 0 in 0 W/m2
01:29 28.6 °F 25.9 °F 29.6 in West 3.8 mph 7 mph 89% 0 in 0 W/m2
01:34 28.6 °F 25.7 °F 29.6 in West 3.2 mph 5 mph 89% 0 in 0 W/m2
01:39 28.2 °F 25.5 °F 29.6 in West 2.4 mph 5 mph 89.4% 0 in 0 W/m2
01:44 28.2 °F 25.7 °F 29.6 in West 2 mph 5 mph 90% 0 in 0 W/m2
01:49 28.2 °F 25.7 °F 29.6 in West 1.3 mph 5 mph 90% 0 in 0 W/m2
01:54 28.2 °F 25.7 °F 29.6 in West 3 mph 5 mph 90% 0 in 0 W/m2
01:59 28.2 °F 25.7 °F 29.6 in WSW 4.6 mph 6 mph 90% 0 in 0 W/m2
02:04 28 °F 25.5 °F 29.6 in WSW 4.7 mph 6 mph 90% 0 in 0 W/m2
02:09 28 °F 25.5 °F 29.6 in WSW 3.5 mph 6 mph 90% 0 in 0 W/m2
02:14 28 °F 25.5 °F 29.6 in WSW 2.7 mph 5 mph 90% 0 in 0 W/m2
02:19 28.2 °F 25.7 °F 29.6 in SW 3.8 mph 6 mph 90% 0 in 0 W/m2
02:24 28.4 °F 25.9 °F 29.6 in WSW 4.8 mph 7 mph 90% 0 in 0 W/m2
02:29 28.6 °F 26.1 °F 29.6 in WSW 4.6 mph 7 mph 90% 0 in 0 W/m2
02:34 28.9 °F 26.1 °F 29.6 in WSW 4.3 mph 8 mph 89.5% 0 in 0 W/m2
02:39 28.9 °F 26.1 °F 29.6 in West 3.6 mph 7 mph 89% 0 in 0 W/m2
02:44 28.9 °F 26.1 °F 29.6 in West 1.5 mph 4 mph 89% 0 in 0 W/m2
02:49 28.9 °F 26.1 °F 29.6 in West 0.3 mph 3 mph 89% 0 in 0 W/m2
02:54 28.8 °F 25.9 °F 29.7 in West 1.1 mph 5 mph 88.5% 0 in 0 W/m2
02:59 28.8 °F 25.9 °F 29.7 in West 0.4 mph 5 mph 88.5% 0 in 0 W/m2
03:04 28.6 °F 25.5 °F 29.6 in West 0.1 mph 4 mph 88% 0 in 0 W/m2
03:09 28.4 °F 25.5 °F 29.7 in West 2.6 mph 5 mph 88.7% 0 in 0 W/m2
03:14 28.2 °F 25.3 °F 29.7 in West 1.7 mph 4 mph 89% 0 in 0 W/m2
03:19 28 °F 25.3 °F 29.7 in WSW 1.9 mph 4 mph 89% 0 in 0 W/m2
03:24 27.9 °F 25 °F 29.7 in WSW 1.4 mph 3 mph 89% 0 in 0 W/m2
03:29 27.7 °F 25 °F 29.7 in Calm   1 mph 89% 0 in 0 W/m2
03:34 27.7 °F 25 °F 29.7 in Calm   2 mph 89.1% 0 in 0 W/m2
03:39 27.7 °F 25.2 °F 29.7 in Calm   2 mph 90% 0 in 0 W/m2
03:44 27.5 °F 25 °F 29.7 in Calm   1 mph 89.8% 0 in 0 W/m2
03:49 27.5 °F 25 °F 29.7 in WSW 0.2 mph 2 mph 90% 0 in 0 W/m2
03:54 27.5 °F 25 °F 29.7 in WSW 1.2 mph 4 mph 90% 0 in 0 W/m2
03:59 27.5 °F 25 °F 29.7 in WSW 1.8 mph 4 mph 90% 0 in 0 W/m2
04:04 27.7 °F 25 °F 29.7 in WSW 0.9 mph 4 mph 90% 0 in 0 W/m2
04:09 27.7 °F 25.2 °F 29.7 in WSW 0.5 mph 4 mph 90% 0 in 0 W/m2
04:14 27.7 °F 25.2 °F 29.7 in WSW 1.1 mph 4 mph 90% 0 in 0 W/m2
04:19 27.7 °F 25 °F 29.7 in WSW 0.9 mph 5 mph 89.3% 0 in 0 W/m2
04:24 27.9 °F 25 °F 29.7 in WSW 1 mph 6 mph 89.5% 0 in 0 W/m2
04:29 27.9 °F 25.3 °F 29.7 in West 2.1 mph 6 mph 90% 0 in 0 W/m2
04:34 28 °F 25.5 °F 29.7 in West 1.1 mph 5 mph 90% 0 in 0 W/m2
04:39 28.4 °F 25.7 °F 29.7 in West 1 mph 5 mph 90% 0 in 0 W/m2
04:44 28.8 °F 26.2 °F 29.7 in West 2 mph 6 mph 90% 0 in 0 W/m2
04:49 29.1 °F 26.6 °F 29.7 in West 3.1 mph 8 mph 90% 0 in 0 W/m2
04:54 29.7 °F 27 °F 29.7 in West 5.5 mph 10 mph 90% 0 in 0 W/m2
04:59 29.7 °F 27.1 °F 29.7 in West 3.9 mph 10 mph 90% 0 in 0 W/m2
05:04 29.8 °F 27.3 °F 29.7 in West 4.1 mph 7 mph 90% 0 in 0 W/m2
05:09 29.8 °F 27.1 °F 29.7 in West 2.2 mph 7 mph 89.5% 0 in 0 W/m2
05:14 29.8 °F 27.1 °F 29.7 in West 1.7 mph 7 mph 89.7% 0 in 0 W/m2
05:19 29.8 °F 27.3 °F 29.7 in West 2.4 mph 8 mph 90% 0 in 0 W/m2
05:24 29.8 °F 27.3 °F 29.7 in West 2.7 mph 8 mph 90% 0 in 0 W/m2
05:29 29.8 °F 27.3 °F 29.7 in West 3 mph 9 mph 90.2% 0 in 0 W/m2
05:34 30 °F 27.3 °F 29.7 in West 2.8 mph 9 mph 90% 0 in 0 W/m2
05:39 30 °F 27.5 °F 29.7 in West 2 mph 8 mph 90.1% 0 in 0 W/m2
05:44 29.8 °F 27.5 °F 29.7 in West 2 mph 8 mph 90.8% 0 in 0 W/m2
05:49 29.8 °F 27.5 °F 29.7 in West 1.4 mph 5 mph 91% 0 in 0 W/m2
05:54 29.8 °F 27.7 °F 29.7 in West 1.9 mph 7 mph 91% 0 in 0 W/m2
05:59 30 °F 27.7 °F 29.7 in West 0.3 mph 5 mph 91% 0 in 0 W/m2
06:04 30 °F 27.7 °F 29.7 in West 1 mph 5 mph 91% 0 in 0 W/m2
06:09 30.2 °F 28 °F 29.7 in West 0.6 mph 5 mph 91.8% 0 in 0 W/m2
06:14 30 °F 28 °F 29.7 in WSW 2.7 mph 7 mph 91.9% 0 in 0 W/m2
06:19 29.8 °F 27.5 °F 29.7 in WSW 1.9 mph 7 mph 91% 0 in 0 W/m2
06:24 29.7 °F 27.5 °F 29.7 in WSW 0.8 mph 3 mph 91.5% 0 in 0 W/m2
06:29 29.7 °F 27.7 °F 29.7 in Calm   4 mph 92% 0 in 0 W/m2
06:34 29.7 °F 27.7 °F 29.7 in Calm   4 mph 92% 0 in 0 W/m2
06:39 29.7 °F 27.7 °F 29.7 in WSW 0.2 mph 4 mph 92% 0 in 0 W/m2
06:44 29.7 °F 27.7 °F 29.7 in WSW 1.9 mph 5 mph 92% 0 in 0 W/m2
06:49 29.7 °F 27.5 °F 29.7 in WSW 1.3 mph 4 mph 92% 0 in 0 W/m2
06:54 29.5 °F 27.5 °F 29.7 in WSW 0.7 mph 3 mph 92.2% 0 in 0 W/m2
06:59 29.7 °F 27.9 °F 29.7 in WSW 0.1 mph 6 mph 93% 0 in 0 W/m2
07:04 29.8 °F 28 °F 29.7 in WSW 2.2 mph 6 mph 93% 0 in 0 W/m2
07:09 29.8 °F 28 °F 29.7 in WSW 4 mph 7 mph 93% 0 in 0 W/m2
07:14 30.2 °F 28.4 °F 29.7 in West 5 mph 9 mph 93% 0 in 0 W/m2
07:19 30.6 °F 28.8 °F 29.7 in West 5.3 mph 9 mph 93% 0 in 0 W/m2
07:24 30.6 °F 28.8 °F 29.7 in WSW 4.8 mph 9 mph 93% 0 in 0 W/m2
07:29 30.6 °F 28.8 °F 29.7 in WSW 3.5 mph 9 mph 93% 0 in 0 W/m2
07:34 30.6 °F 28.8 °F 29.7 in WSW 3.4 mph 8 mph 93% 0 in 0 W/m2
07:39 30.7 °F 29.1 °F 29.7 in WSW 2.9 mph 7 mph 93.6% 0 in 0 W/m2
07:44 30.6 °F 28.9 °F 29.7 in WSW 3.1 mph 7 mph 93.1% 0 in 0 W/m2
07:49 30.6 °F 28.8 °F 29.7 in WSW 3 mph 7 mph 93% 0 in 0 W/m2
07:54 30.4 °F 28.6 °F 29.7 in WSW 4.2 mph 8 mph 93% 0 in 5 W/m2
07:59 30.6 °F 28.8 °F 29.7 in WSW 4.5 mph 8 mph 93% 0 in 7 W/m2
08:04 30.6 °F 28.9 °F 29.7 in WSW 5.9 mph 10 mph 93.4% 0 in 7 W/m2
08:09 30.7 °F 29.3 °F 29.7 in WSW 6.4 mph 10 mph 93.7% 0 in 9 W/m2
08:14 30.7 °F 29.1 °F 29.7 in WSW 6.3 mph 9 mph 93% 0 in 12 W/m2
08:19 30.6 °F 28.9 °F 29.7 in WSW 6.8 mph 10 mph 93% 0 in 12 W/m2
08:24 30.4 °F 28.6 °F 29.7 in WSW 5.7 mph 9 mph 93% 0 in 14 W/m2
08:29 30.7 °F 29.1 °F 29.7 in West 7 mph 11 mph 93.5% 0 in 21 W/m2
08:34 31.3 °F 29.8 °F 29.7 in West 7 mph 10 mph 94% 0 in 32 W/m2
08:39 31.6 °F 30 °F 29.7 in West 7.1 mph 11 mph 93.4% 0 in 40 W/m2
08:44 31.8 °F 30 °F 29.7 in WSW 7.6 mph 11 mph 93% 0 in 49 W/m2
08:49 32.2 °F 30.4 °F 29.7 in West 7.1 mph 11 mph 93% 0 in 56 W/m2
08:54 32.4 °F 30.6 °F 29.7 in West 6.5 mph 11 mph 93% 0 in 69 W/m2
08:59 32.7 °F 30.9 °F 29.7 in West 8.6 mph 13 mph 93% 0 in 81 W/m2
09:04 33.1 °F 31.3 °F 29.7 in West 9.2 mph 15 mph 93% 0 in 90 W/m2
09:09 33.3 °F 31.5 °F 29.7 in WSW 10.1 mph 15 mph 93% 0 in 102 W/m2
09:14 33.4 °F 31.6 °F 29.7 in WSW 8.9 mph 13 mph 93% 0 in 111 W/m2
09:19 33.3 °F 31.5 °F 29.7 in WSW 8.5 mph 13 mph 93% 0 in 123 W/m2
09:24 33.4 °F 31.6 °F 29.7 in WSW 9.1 mph 14 mph 93% 0 in 141 W/m2
09:29 33.8 °F 32 °F 29.7 in West 8.9 mph 14 mph 93% 0 in 155 W/m2
09:34 34 °F 32.2 °F 29.7 in WSW 9.9 mph 14 mph 93% 0 in 163 W/m2
09:39 34.2 °F 32.2 °F 29.7 in WSW 9.6 mph 14 mph 92.5% 0 in 163 W/m2
09:44 34.2 °F 32.2 °F 29.7 in WSW 9.8 mph 14 mph 92% 0 in 163 W/m2
09:49 34.3 °F 32.4 °F 29.7 in WSW 10.9 mph 19 mph 92.4% 0 in 172 W/m2
09:54 34.5 °F 32.5 °F 29.7 in WSW 11.1 mph 19 mph 92.3% 0 in 179 W/m2
09:59 34.9 °F 32.9 °F 29.7 in WSW 10.6 mph 16 mph 92.3% 0 in 186 W/m2
10:04 35.1 °F 32.9 °F 29.7 in WSW 11.9 mph 19 mph 92.1% 0 in 193 W/m2
10:09 35.2 °F 33.1 °F 29.7 in WSW 12.6 mph 19 mph 92% 0 in 199 W/m2
10:14 35.4 °F 33.4 °F 29.7 in WSW 13.4 mph 19 mph 92% 0 in 206 W/m2
10:19 35.8 °F 33.6 °F 29.7 in WSW 12.6 mph 20 mph 92% 0 in 211 W/m2
10:24 36 °F 33.8 °F 29.7 in WSW 12.7 mph 20 mph 91.8% 0 in 220 W/m2
10:29 36.1 °F 33.8 °F 29.7 in WSW 12.6 mph 19 mph 91% 0 in 225 W/m2
10:34 36.1 °F 33.8 °F 29.7 in WSW 10.9 mph 18 mph 91% 0 in 230 W/m2
10:39 36.3 °F 34 °F 29.7 in West 11.8 mph 16 mph 91% 0 in 236 W/m2
10:44 36.7 °F 34.2 °F 29.7 in West 12.2 mph 19 mph 90.8% 0 in 239 W/m2
10:49 36.9 °F 34.3 °F 29.7 in WSW 12.2 mph 20 mph 90.2% 0 in 244 W/m2
10:54 37 °F 34.5 °F 29.7 in West 12.2 mph 22 mph 90% 0 in 251 W/m2
10:59 37.4 °F 34.7 °F 29.7 in West 11.8 mph 22 mph 90% 0 in 253 W/m2
11:04 37.6 °F 34.7 °F 29.7 in West 11.8 mph 20 mph 89.5% 0 in 258 W/m2
11:09 37.8 °F 34.9 °F 29.7 in West 12.2 mph 22 mph 89% 0 in 262 W/m2
11:14 37.9 °F 35.1 °F 29.7 in West 13.5 mph 22 mph 89% 0.01 in 265 W/m2
11:19 38.1 °F 35.1 °F 29.7 in West 14.8 mph 20 mph 88.3% 0.01 in 269 W/m2
11:24 38.5 °F 35.1 °F 29.7 in West 15.9 mph 21 mph 87.7% 0.01 in 272 W/m2
11:29 38.7 °F 35.1 °F 29.7 in West 14.9 mph 22 mph 87% 0.01 in 276 W/m2
11:34 38.8 °F 35.2 °F 29.7 in West 15.8 mph 22 mph 87% 0.01 in 281 W/m2
11:39 39 °F 35.4 °F 29.7 in West 16.8 mph 24 mph 86.6% 0.01 in 283 W/m2
11:44 39.2 °F 35.4 °F 29.7 in West 14.4 mph 20 mph 86% 0.01 in 287 W/m2
11:49 39.4 °F 35.4 °F 29.7 in West 16.2 mph 21 mph 86% 0.01 in 290 W/m2
11:54 39.6 °F 35.8 °F 29.7 in WNW 17 mph 26 mph 86% 0.01 in 292 W/m2
11:59 39.9 °F 35.8 °F 29.7 in WNW 18.1 mph 26 mph 85% 0.01 in 297 W/m2
12:04 39.9 °F 35.8 °F 29.7 in WNW 16.8 mph 24 mph 85% 0.01 in 327 W/m2
12:09 39.9 °F 35.8 °F 29.7 in West 16 mph 22 mph 84.8% 0.01 in 306 W/m2
12:14 39.9 °F 35.8 °F 29.7 in West 17.7 mph 23 mph 85% 0.01 in 297 W/m2
12:19 40.3 °F 35.8 °F 29.7 in WNW 17.8 mph 25 mph 84% 0 in 297 W/m2
12:24 40.5 °F 35.8 °F 29.7 in WNW 15.8 mph 23 mph 83.4% 0 in 297 W/m2
12:29 40.5 °F 35.8 °F 29.7 in WNW 16.2 mph 21 mph 83.2% 0 in 297 W/m2
12:34 40.6 °F 36 °F 29.7 in WNW 15.6 mph 21 mph 83.7% 0 in 297 W/m2
12:39 40.6 °F 36.1 °F 29.7 in WNW 15.8 mph 24 mph 84% 0 in 297 W/m2
12:44 40.6 °F 36.1 °F 29.7 in WNW 18.1 mph 24 mph 83.6% 0 in 295 W/m2
12:49 40.6 °F 36.1 °F 29.7 in WNW 16.5 mph 22 mph 83.5% 0 in 294 W/m2
12:54 40.6 °F 36.1 °F 29.7 in WNW 16.7 mph 24 mph 84% 0 in 294 W/m2
12:59 40.8 °F 36.3 °F 29.7 in WNW 17.6 mph 24 mph 84% 0 in 292 W/m2
13:04 40.8 °F 36.3 °F 29.7 in WNW 16.7 mph 22 mph 84% 0 in 290 W/m2
13:09 40.8 °F 36.3 °F 29.7 in WNW 17.6 mph 24 mph 84% 0 in 287 W/m2
13:14 41 °F 36.1 °F 29.7 in WNW 21.1 mph 28 mph 82.8% 0 in 285 W/m2
13:19 41.2 °F 36.1 °F 29.7 in WNW 21.7 mph 30 mph 82% 0 in 283 W/m2
13:24 41.2 °F 36.1 °F 29.7 in WNW 20.3 mph 30 mph 82% 0 in 279 W/m2
13:29 41.2 °F 36 °F 29.7 in WNW 21.4 mph 29 mph 81.5% 0 in 276 W/m2
13:34 41.2 °F 35.8 °F 29.8 in WNW 19.8 mph 26 mph 81% 0 in 271 W/m2
13:39 41.4 °F 36 °F 29.8 in WNW 19.6 mph 26 mph 81% 0 in 267 W/m2
13:44 41.4 °F 36 °F 29.8 in WNW 20 mph 28 mph 81% 0 in 262 W/m2
13:49 41.4 °F 36 °F 29.8 in WNW 20.3 mph 27 mph 81% 0 in 258 W/m2
13:54 41.4 °F 35.8 °F 29.8 in WNW 21.9 mph 30 mph 80.4% 0 in 253 W/m2
13:59 41.5 °F 35.8 °F 29.8 in WNW 20.7 mph 28 mph 80% 0 in 250 W/m2
14:04 41.5 °F 35.8 °F 29.8 in WNW 21 mph 29 mph 80% 0 in 241 W/m2
14:09 41.5 °F 35.6 °F 29.8 in WNW 20.8 mph 30 mph 79.4% 0 in 237 W/m2
14:14 41.5 °F 35.4 °F 29.8 in WNW 21.4 mph 30 mph 78.8% 0 in 232 W/m2
14:19 41.5 °F 35.4 °F 29.8 in WNW 19.7 mph 28 mph 79% 0 in 227 W/m2
14:24 41.5 °F 35.4 °F 29.8 in WNW 24 mph 32 mph 78.7% 0 in 218 W/m2
14:29 41.4 °F 35.4 °F 29.8 in WNW 22.6 mph 32 mph 79% 0 in 209 W/m2
14:34 41.2 °F 35.4 °F 29.8 in WNW 21.7 mph 29 mph 79.8% 0 in 197 W/m2
14:39 41 °F 35.2 °F 29.8 in WNW 23.9 mph 32 mph 80% 0 in 56 W/m2
14:44 40.6 °F 35.2 °F 29.8 in WNW 20.8 mph 29 mph 80.4% 0 in 183 W/m2
14:49 40.6 °F 35.2 °F 29.8 in WNW 21 mph 30 mph 81% 0 in 174 W/m2
14:54 40.8 °F 35.2 °F 29.8 in WNW 21.7 mph 30 mph 80.7% 0 in 178 W/m2
14:59 40.8 °F 35.4 °F 29.8 in WNW 21.6 mph 30 mph 81% 0 in 172 W/m2
15:04 41 °F 35.6 °F 29.8 in WNW 21.5 mph 30 mph 80.8% 0 in 174 W/m2
15:09 41.2 °F 35.4 °F 29.8 in WNW 22.6 mph 31 mph 80% 0 in 176 W/m2
15:14 41.2 °F 35.4 °F 29.8 in WNW 21.2 mph 29 mph 80% 0 in 169 W/m2
15:19 41.2 °F 35.6 °F 29.8 in WNW 22.7 mph 28 mph 80% 0 in 146 W/m2
15:24 41.2 °F 35.4 °F 29.8 in WNW 22.5 mph 28 mph 80% 0 in 135 W/m2
15:29 41.2 °F 35.4 °F 29.8 in WNW 20.1 mph 28 mph 80% 0 in 134 W/m2
15:34 40.8 °F 35.2 °F 29.8 in WNW 19.5 mph 26 mph 80% 0 in 114 W/m2
15:39 40.8 °F 35.1 °F 29.8 in WNW 19.6 mph 26 mph 80% 0 in 93 W/m2
15:44 40.6 °F 35.1 °F 29.8 in WNW 18.9 mph 26 mph 80% 0 in 86 W/m2
15:49 40.5 °F 34.9 °F 29.8 in WNW 21.4 mph 30 mph 80% 0 in 53 W/m2
15:54 40.5 °F 34.9 °F 29.8 in WNW 21.5 mph 30 mph 80% 0 in 51 W/m2
15:59 40.3 °F 34.7 °F 29.8 in WNW 19.6 mph 24 mph 80.5% 0 in 51 W/m2
16:04 40.1 °F 34.7 °F 29.8 in WNW 18.9 mph 25 mph 81% 0 in 30 W/m2
16:09 39.9 °F 34.5 °F 29.8 in WNW 17.8 mph 25 mph 81% 0 in 28 W/m2
16:14 39.6 °F 34.5 °F 29.8 in West 15.8 mph 22 mph 81.7% 0 in 12 W/m2
16:19 39.6 °F 34.7 °F 29.8 in WNW 19.5 mph 27 mph 82.7% 0 in 9 W/m2
16:24 39.4 °F 34.7 °F 29.8 in WNW 19.4 mph 26 mph 83% 0 in 7 W/m2
16:29 39.2 °F 34.5 °F 29.8 in WNW 17.6 mph 23 mph 83% 0 in 7 W/m2
16:34 39 °F 34.5 °F 29.8 in WNW 17.1 mph 23 mph 83.7% 0 in 5 W/m2
16:39 38.7 °F 34.3 °F 29.8 in West 14.2 mph 20 mph 84.1% 0 in 0 W/m2
16:44 38.3 °F 34.3 °F 29.8 in West 13.2 mph 19 mph 85% 0 in 0 W/m2
16:49 38.1 °F 34.3 °F 29.8 in West 14.2 mph 20 mph 85.9% 0 in 0 W/m2
16:54 38.1 °F 34.3 °F 29.8 in West 15.2 mph 22 mph 86% 0 in 0 W/m2
16:59 38.1 °F 34.3 °F 29.8 in West 17.3 mph 24 mph 86% 0 in 0 W/m2
17:04 38.3 °F 34.5 °F 29.8 in West 17.7 mph 24 mph 86% 0 in 0 W/m2
17:09 38.1 °F 34.3 °F 29.8 in West 17 mph 23 mph 86% 0 in 0 W/m2
17:14 37.9 °F 34.3 °F 29.8 in West 17.2 mph 23 mph 86.3% 0 in 0 W/m2
17:19 37.9 °F 34.3 °F 29.8 in West 16.2 mph 22 mph 86.8% 0 in 0 W/m2
17:24 37.8 °F 34.2 °F 29.8 in West 16.8 mph 22 mph 87% 0 in 0 W/m2
17:29 37.6 °F 34.2 °F 29.8 in West 16.5 mph 23 mph 87% 0 in 0 W/m2
17:34 37.6 °F 34.3 °F 29.8 in WNW 16.2 mph 22 mph 88% 0 in 0 W/m2
17:39 37.6 °F 34.3 °F 29.8 in West 15.9 mph 22 mph 88% 0 in 0 W/m2
17:44 37.4 °F 34.2 °F 29.8 in West 16 mph 22 mph 88% 0 in 0 W/m2
17:49 37.2 °F 34 °F 29.8 in West 14.9 mph 22 mph 88% 0 in 0 W/m2
17:54 37.4 °F 34.2 °F 29.8 in West 15.3 mph 21 mph 88% 0 in 0 W/m2
17:59 37.2 °F 34 °F 29.9 in WNW 15.1 mph 21 mph 88% 0 in 0 W/m2
18:04 37.6 °F 34.2 °F 29.9 in WNW 17.3 mph 21 mph 87.8% 0 in 0 W/m2
18:09 37.6 °F 34 °F 29.9 in WNW 15.9 mph 21 mph 87% 0 in 0 W/m2
18:14 37.6 °F 34.2 °F 29.9 in West 16.2 mph 21 mph 87.2% 0 in 0 W/m2
18:19 37.6 °F 34.2 °F 29.9 in West 15.9 mph 22 mph 87% 0 in 0 W/m2
18:24 37.6 °F 34 °F 29.9 in West 14.6 mph 22 mph 87% 0 in 0 W/m2
18:29 37.2 °F 33.6 °F 29.9 in West 13.4 mph 19 mph 87% 0 in 0 W/m2
18:34 37 °F 33.6 °F 29.9 in West 13.2 mph 19 mph 87.2% 0 in 0 W/m2
18:39 37 °F 33.6 °F 29.9 in West 13.8 mph 19 mph 87.5% 0 in 0 W/m2
18:44 37 °F 33.6 °F 29.9 in WNW 13.9 mph 20 mph 87.5% 0 in 0 W/m2
18:49 37.2 °F 33.8 °F 29.9 in WNW 14.4 mph 20 mph 87.2% 0 in 0 W/m2
18:54 37.2 °F 33.6 °F 29.9 in West 14.4 mph 20 mph 87% 0 in 0 W/m2
18:59 37.2 °F 33.6 °F 29.9 in West 14.2 mph 20 mph 87% 0 in 0 W/m2
19:04 37 °F 33.4 °F 29.9 in West 12.9 mph 19 mph 87% 0 in 0 W/m2
19:09 37 °F 33.4 °F 29.9 in West 13 mph 16 mph 87% 0 in 0 W/m2
19:14 36.9 °F 33.4 °F 29.9 in West 13.9 mph 18 mph 87.4% 0 in 0 W/m2
19:19 36.9 °F 33.4 °F 29.9 in West 14.9 mph 20 mph 87.5% 0 in 0 W/m2
19:24 36.9 °F 33.3 °F 29.9 in West 13.5 mph 19 mph 87% 0 in 0 W/m2
19:29 36.7 °F 33.3 °F 29.9 in West 14.4 mph 19 mph 87.3% 0 in 0 W/m2
19:34 36.7 °F 33.3 °F 29.9 in West 14.7 mph 21 mph 87.2% 0 in 0 W/m2
19:39 36.7 °F 33.3 °F 29.9 in West 15.5 mph 21 mph 87% 0 in 0 W/m2
19:44 36.9 °F 33.4 °F 29.9 in West 15.1 mph 21 mph 87% 0 in 0 W/m2
19:49 36.7 °F 33.3 °F 29.9 in West 14.7 mph 19 mph 87% 0 in 0 W/m2
19:54 36.7 °F 33.3 °F 29.9 in West 14.6 mph 19 mph 87.4% 0 in 0 W/m2
19:59 36.5 °F 33.3 °F 29.9 in West 15.2 mph 20 mph 87.8% 0 in 0 W/m2
20:04 36.7 °F 33.4 °F 29.9 in West 16.6 mph 22 mph 88% 0 in 0 W/m2
20:09 36.9 °F 33.4 °F 29.9 in West 16 mph 22 mph 87.1% 0 in 0 W/m2
20:14 36.7 °F 33.4 °F 29.9 in WNW 15.7 mph 21 mph 87.7% 0 in 0 W/m2
20:19 36.9 °F 33.4 °F 29.9 in WNW 15.3 mph 21 mph 87% 0 in 0 W/m2
20:24 36.7 °F 33.3 °F 29.9 in West 14.4 mph 20 mph 87.2% 0 in 0 W/m2
20:29 36.9 °F 33.4 °F 29.9 in West 14.9 mph 20 mph 87.5% 0 in 0 W/m2
20:34 36.9 °F 33.4 °F 29.9 in West 14.8 mph 20 mph 87% 0 in 0 W/m2
20:39 36.9 °F 33.4 °F 29.9 in West 14.4 mph 19 mph 87% 0 in 0 W/m2
20:44 36.9 °F 33.3 °F 29.9 in West 13.6 mph 19 mph 87% 0 in 0 W/m2
20:49 36.7 °F 33.3 °F 29.9 in West 13.9 mph 20 mph 87% 0 in 0 W/m2
20:54 36.9 °F 33.4 °F 29.9 in West 13.7 mph 19 mph 87% 0 in 0 W/m2
20:59 36.9 °F 33.4 °F 29.9 in West 12.2 mph 18 mph 87% 0 in 0 W/m2
21:04 36.9 °F 33.3 °F 29.9 in West 9.1 mph 13 mph 87% 0 in 0 W/m2
21:09 36.5 °F 33.1 °F 29.9 in West 8.4 mph 12 mph 87% 0 in 0 W/m2
21:14 36.3 °F 32.7 °F 29.9 in West 8.9 mph 16 mph 87% 0 in 0 W/m2
21:19 36.1 °F 32.9 °F 29.9 in West 9.4 mph 16 mph 88% 0 in 0 W/m2
21:24 36.1 °F 32.9 °F 29.9 in West 10.8 mph 16 mph 88% 0 in 0 W/m2
21:29 36.3 °F 33.1 °F 29.9 in West 11.1 mph 16 mph 88% 0 in 0 W/m2
21:34 36.1 °F 32.9 °F 29.9 in West 10.3 mph 19 mph 88% 0 in 0 W/m2
21:39 36.1 °F 32.9 °F 29.9 in West 11.2 mph 19 mph 88% 0 in 0 W/m2
21:44 36.1 °F 32.9 °F 29.9 in West 12.4 mph 16 mph 88% 0 in 0 W/m2
21:49 36.1 °F 32.9 °F 29.9 in West 11.9 mph 18 mph 88% 0 in 0 W/m2
21:54 36.1 °F 32.9 °F 29.9 in West 10.4 mph 14 mph 88% 0 in 0 W/m2
21:59 36.1 °F 32.9 °F 29.9 in West 8.4 mph 14 mph 88% 0 in 0 W/m2
22:04 36 °F 32.5 °F 29.9 in West 7.5 mph 11 mph 87.5% 0 in 0 W/m2
22:09 35.8 °F 32.5 °F 29.9 in West 8.1 mph 12 mph 88% 0 in 0 W/m2
22:14 35.8 °F 32.5 °F 29.9 in West 8.6 mph 13 mph 88% 0 in 0 W/m2
22:19 35.8 °F 32.5 °F 29.9 in West 7.8 mph 13 mph 88% 0 in 0 W/m2
22:24 35.4 °F 32.4 °F 29.9 in West 7 mph 13 mph 88% 0 in 0 W/m2
22:29 35.4 °F 32.2 °F 29.9 in West 7.6 mph 12 mph 88.1% 0 in 0 W/m2
22:34 35.6 °F 32.5 °F 29.9 in West 8.8 mph 13 mph 88.6% 0 in 0 W/m2
22:39 35.8 °F 32.5 °F 29.9 in West 8.6 mph 13 mph 88.2% 0 in 0 W/m2
22:44 35.4 °F 32.2 °F 29.9 in West 7.4 mph 11 mph 88% 0 in 0 W/m2
22:49 35.2 °F 32 °F 29.9 in West 6 mph 10 mph 88.2% 0 in 0 W/m2
22:54 35.1 °F 32 °F 29.9 in West 5.6 mph 12 mph 88.9% 0 in 0 W/m2
22:59 34.9 °F 32 °F 29.9 in West 5.4 mph 12 mph 89% 0 in 0 W/m2
23:04 35.1 °F 32.2 °F 29.9 in West 6.1 mph 11 mph 89.1% 0 in 0 W/m2
North Lincolnshire Weather
Compliments of Weather Underground - 2 mb

Data updates at regular intervals.